Dades meteomassalio
Diari Summary for Octubre 1, 2017 Units:  Metric    English   Both
« Previous Day
Next Day »
Diari Semanal Mensual Anual Personalitzat
  Maxima: Minima: Mijana:
Temperatura: 22.8 °C 13.3 °C 18.5 °C
Rosada: 15.2 °C 7.6 °C 12.3 °C
Humitat: 88 % 47 % 68 %
Velocitat del vent: 38.9 km/h 0.0 km/h 14 km/h
Racha vent: 38.9 km/h - -
Vent:- - SW
Pressio: 1024.9 hPa 1022.6 hPa -
Pluja: 0.0 mm    
Historical Graphs
 
 
Tabular Data for Octubre 1, 2017
Time Temperature Dew Point Pressure Wind Wind Speed Wind Gust Humidity Rainfall Rate (Hourly) solar Conditions
00:01 16.1 °C 13.9 °C 1023.6 hPa Calm     87 % 0.0 mm 0.0 W/m2 CLR
00:06 16.1 °C 13.9 °C 1023.2 hPa Calm     87 % 0.0 mm 0.0 W/m2 CLR
00:11 16.1 °C 13.9 °C 1023.2 hPa Calm     87 % 0.0 mm 0.0 W/m2 CLR
00:16 15.6 °C 13.4 °C 1023.2 hPa Calm     87 % 0.0 mm 0.0 W/m2 CLR
00:21 15.6 °C 13.4 °C 1023.6 hPa Calm     87 % 0.0 mm 0.0 W/m2 CLR
00:26 15.6 °C 13.6 °C 1023.2 hPa Calm     88 % 0.0 mm 0.0 W/m2 CLR
00:31 15.6 °C 13.4 °C 1023.2 hPa Calm     87 % 0.0 mm 0.0 W/m2 CLR
00:37 16.1 °C 13.9 °C 1023.6 hPa Calm     87 % 0.0 mm 0.0 W/m2 CLR
00:42 15.6 °C 13.4 °C 1023.6 hPa Calm     87 % 0.0 mm 0.0 W/m2 CLR
00:47 15.6 °C 13.4 °C 1023.6 hPa Calm     87 % 0.0 mm 0.0 W/m2 CLR
00:52 15.6 °C 13.4 °C 1023.2 hPa Calm     87 % 0.0 mm 0.0 W/m2 CLR
00:57 16.1 °C 13.9 °C 1023.2 hPa SSE 6.4 km/h 6.4 km/h 87 % 0.0 mm 0.0 W/m2 CLR
01:02 16.7 °C 14.5 °C 1023.2 hPa Calm     87 % 0.0 mm 0.0 W/m2 CLR
01:07 16.7 °C 14.5 °C 1023.2 hPa Calm     87 % 0.0 mm 0.0 W/m2 CLR
01:12 16.7 °C 14.7 °C 1023.2 hPa South 7.4 km/h 7.4 km/h 88 % 0.0 mm 0.0 W/m2 CLR
01:17 17.2 °C 15.2 °C 1022.9 hPa South 8.0 km/h 8.0 km/h 88 % 0.0 mm 0.0 W/m2 CLR
01:22 17.2 °C 15.1 °C 1022.9 hPa South 7.4 km/h 7.4 km/h 87 % 0.0 mm 0.0 W/m2 CLR
01:27 16.7 °C 14.3 °C 1022.9 hPa Calm   0.5 km/h 86 % 0.0 mm 0.0 W/m2 CLR
01:32 16.7 °C 14.3 °C 1022.9 hPa South 5.6 km/h   86 % 0.0 mm 0.0 W/m2 CLR
01:37 16.7 °C 14.3 °C 1022.9 hPa South 9.3 km/h   86 % 0.0 mm 0.0 W/m2 CLR
01:42 16.7 °C 14.1 °C 1022.9 hPa Calm     85 % 0.0 mm 0.0 W/m2 CLR
01:47 16.7 °C 14.1 °C 1022.9 hPa South 7.4 km/h 7.4 km/h 85 % 0.0 mm 0.0 W/m2 CLR
01:52 16.1 °C 13.6 °C 1023.2 hPa South 5.6 km/h 5.6 km/h 85 % 0.0 mm 0.0 W/m2 CLR
01:57 16.1 °C 13.4 °C 1022.9 hPa Calm     84 % 0.0 mm 0.0 W/m2 CLR
02:02 16.1 °C 13.4 °C 1022.9 hPa South 7.4 km/h 7.4 km/h 84 % 0.0 mm 0.0 W/m2 CLR
02:07 15.6 °C 12.9 °C 1022.9 hPa SSE 9.3 km/h   84 % 0.0 mm 0.0 W/m2 CLR
02:12 15.6 °C 12.9 °C 1022.9 hPa Calm     84 % 0.0 mm 0.0 W/m2 CLR
02:17 15.6 °C 12.9 °C 1022.9 hPa Calm     84 % 0.0 mm 0.0 W/m2 CLR
02:22 15.0 °C 12.3 °C 1022.9 hPa Calm     84 % 0.0 mm 0.0 W/m2 CLR
02:27 15.0 °C 12.5 °C 1022.9 hPa Calm     85 % 0.0 mm 0.0 W/m2 CLR
02:32 15.0 °C 12.7 °C 1022.9 hPa South 11.1 km/h 11.1 km/h 86 % 0.0 mm 0.0 W/m2 CLR
02:37 15.0 °C 12.5 °C 1022.9 hPa South 18.5 km/h 18.5 km/h 85 % 0.0 mm 0.0 W/m2 CLR
02:42 15.0 °C 12.3 °C 1022.6 hPa South 9.7 km/h 9.7 km/h 84 % 0.0 mm 0.0 W/m2 CLR
02:47 15.6 °C 12.7 °C 1022.9 hPa Calm     83 % 0.0 mm 0.0 W/m2 CLR
02:52 16.1 °C 13.2 °C 1022.9 hPa Calm     83 % 0.0 mm 0.0 W/m2 CLR
02:57 16.1 °C 13.2 °C 1022.6 hPa Calm     83 % 0.0 mm 0.0 W/m2 CLR
03:02 16.1 °C 13.2 °C 1022.6 hPa Calm     83 % 0.0 mm 0.0 W/m2 CLR
03:07 15.6 °C 12.7 °C 1022.6 hPa Calm     83 % 0.0 mm 0.0 W/m2 CLR
03:12 15.6 °C 12.9 °C 1022.9 hPa Calm     84 % 0.0 mm 0.0 W/m2 CLR
03:17 15.6 °C 12.7 °C 1022.9 hPa Calm     83 % 0.0 mm 0.0 W/m2 CLR
03:22 15.0 °C 12.1 °C 1022.9 hPa Calm     83 % 0.0 mm 0.0 W/m2 CLR
03:27 15.0 °C 12.1 °C 1022.9 hPa Calm     83 % 0.0 mm 0.0 W/m2 CLR
03:32 15.0 °C 12.1 °C 1022.9 hPa Calm     83 % 0.0 mm 0.0 W/m2 CLR
03:37 15.0 °C 12.1 °C 1022.9 hPa Calm     83 % 0.0 mm 0.0 W/m2 CLR
03:42 15.0 °C 12.3 °C 1022.9 hPa Calm     84 % 0.0 mm 0.0 W/m2 CLR
03:47 15.0 °C 12.3 °C 1022.9 hPa Calm     84 % 0.0 mm 0.0 W/m2 CLR
03:52 15.0 °C 11.9 °C 1022.6 hPa South 9.7 km/h 9.7 km/h 82 % 0.0 mm 0.0 W/m2 CLR
03:57 15.0 °C 11.8 °C 1022.6 hPa South 6.4 km/h 6.4 km/h 81 % 0.0 mm 0.0 W/m2 CLR
04:02 15.0 °C 11.4 °C 1022.6 hPa South 13.0 km/h 13.0 km/h 79 % 0.0 mm 0.0 W/m2 CLR
04:07 15.0 °C 11.2 °C 1022.6 hPa SSW 5.6 km/h   78 % 0.0 mm 0.0 W/m2 CLR
04:12 15.0 °C 11.0 °C 1022.6 hPa SSW 7.4 km/h 7.4 km/h 77 % 0.0 mm 0.0 W/m2 CLR
04:17 15.0 °C 10.8 °C 1022.6 hPa SSW 9.3 km/h 9.3 km/h 76 % 0.0 mm 0.0 W/m2 CLR
04:22 15.0 °C 10.6 °C 1022.6 hPa SSW 13.0 km/h 13.0 km/h 75 % 0.0 mm 0.0 W/m2 CLR
04:27 15.0 °C 10.6 °C 1022.6 hPa SSW 7.4 km/h 7.4 km/h 75 % 0.0 mm 0.0 W/m2 CLR
04:32 15.0 °C 10.4 °C 1022.6 hPa SSW 5.6 km/h 5.6 km/h 74 % 0.0 mm 0.0 W/m2 CLR
04:37 15.0 °C 10.2 °C 1022.6 hPa SSW 11.1 km/h 11.1 km/h 73 % 0.0 mm 0.0 W/m2 CLR
04:42 15.0 °C 10.2 °C 1022.6 hPa SSW 7.4 km/h 7.4 km/h 73 % 0.0 mm 0.0 W/m2 CLR
04:47 15.0 °C 10.2 °C 1022.6 hPa SSW 5.6 km/h 5.8 km/h 73 % 0.0 mm 0.0 W/m2 CLR
04:53 15.0 °C 10.0 °C 1022.6 hPa SSW 5.6 km/h   72 % 0.0 mm 0.0 W/m2 CLR
04:58 15.0 °C 10.0 °C 1022.6 hPa Calm     72 % 0.0 mm 0.0 W/m2 CLR
05:03 15.0 °C 10.0 °C 1022.9 hPa Calm     72 % 0.0 mm 0.0 W/m2 CLR
05:08 15.6 °C 10.3 °C 1022.9 hPa SSW 5.6 km/h 5.6 km/h 71 % 0.0 mm 0.0 W/m2 CLR
05:13 15.6 °C 10.3 °C 1022.9 hPa Calm   1.8 km/h 71 % 0.0 mm 0.0 W/m2 CLR
05:18 15.6 °C 10.3 °C 1022.9 hPa SSW 5.6 km/h 5.6 km/h 71 % 0.0 mm 0.0 W/m2 CLR
05:23 16.1 °C 10.8 °C 1022.9 hPa SSW 9.3 km/h 9.3 km/h 71 % 0.0 mm 0.0 W/m2 CLR
05:28 16.1 °C 10.8 °C 1022.6 hPa SSW 13.0 km/h 13.0 km/h 71 % 0.0 mm 0.0 W/m2 CLR
05:33 16.1 °C 10.8 °C 1022.6 hPa SSW 13.0 km/h 13.0 km/h 71 % 0.0 mm 0.0 W/m2 CLR
05:38 16.1 °C 10.8 °C 1022.6 hPa SW 13.0 km/h 13.0 km/h 71 % 0.0 mm 0.0 W/m2 CLR
05:43 16.1 °C 10.8 °C 1022.6 hPa SSW 9.3 km/h 9.3 km/h 71 % 0.0 mm 0.0 W/m2 CLR
05:48 15.6 °C 10.3 °C 1022.6 hPa SSW 3.7 km/h 3.7 km/h 71 % 0.0 mm 0.0 W/m2 CLR
05:53 15.6 °C 10.3 °C 1022.6 hPa SW 8.0 km/h 8.0 km/h 71 % 0.0 mm 0.0 W/m2 CLR
05:58 15.6 °C 10.3 °C 1022.9 hPa SSW 5.6 km/h 5.6 km/h 71 % 0.0 mm 0.0 W/m2 CLR
06:03 15.6 °C 10.3 °C 1022.9 hPa SSW 3.2 km/h 3.2 km/h 71 % 0.0 mm 0.0 W/m2 CLR
06:08 15.0 °C 9.8 °C 1022.9 hPa SSW 5.6 km/h   71 % 0.0 mm 0.0 W/m2 CLR
06:13 15.0 °C 9.8 °C 1022.9 hPa Calm     71 % 0.0 mm 0.0 W/m2 CLR
06:18 15.0 °C 9.8 °C 1022.6 hPa Calm     71 % 0.0 mm 0.0 W/m2 CLR
06:23 15.0 °C 9.8 °C 1022.6 hPa Calm     71 % 0.0 mm 0.0 W/m2 CLR
06:28 15.0 °C 10.0 °C 1022.6 hPa Calm     72 % 0.0 mm 0.0 W/m2 CLR
06:33 14.4 °C 9.4 °C 1022.6 hPa Calm     72 % 0.0 mm 0.0 W/m2 CLR
06:38 14.4 °C 9.4 °C 1022.6 hPa Calm     72 % 0.0 mm 0.0 W/m2 CLR
06:43 14.4 °C 9.4 °C 1022.6 hPa Calm     72 % 0.0 mm 0.0 W/m2 CLR
06:48 13.9 °C 8.9 °C 1022.6 hPa Calm     72 % 0.0 mm 0.0 W/m2 CLR
06:53 13.9 °C 8.9 °C 1022.9 hPa Calm     72 % 0.0 mm 0.0 W/m2 CLR
06:58 13.9 °C 8.9 °C 1022.9 hPa SW 6.4 km/h 6.4 km/h 72 % 0.0 mm 0.0 W/m2 CLR
07:03 13.9 °C 8.7 °C 1022.9 hPa Calm     71 % 0.0 mm 0.0 W/m2 CLR
07:08 13.9 °C 8.7 °C 1022.9 hPa SSW 5.6 km/h 5.6 km/h 71 % 0.0 mm 0.0 W/m2 CLR
07:13 13.9 °C 8.7 °C 1022.9 hPa SW 9.3 km/h 9.3 km/h 71 % 0.0 mm 0.0 W/m2 CLR
07:18 13.9 °C 8.7 °C 1022.9 hPa SW 5.6 km/h 5.6 km/h 71 % 0.0 mm 0.0 W/m2 CLR
07:23 13.9 °C 8.7 °C 1023.2 hPa SW 5.6 km/h 5.6 km/h 71 % 0.0 mm 0.0 W/m2 CLR
07:28 13.9 °C 8.5 °C 1023.2 hPa SSW 9.3 km/h 9.3 km/h 70 % 0.0 mm 0.0 W/m2 CLR
07:33 13.9 °C 8.3 °C 1022.9 hPa SSW 7.4 km/h 7.4 km/h 69 % 0.0 mm 0.0 W/m2 CLR
07:38 13.9 °C 8.3 °C 1022.9 hPa SSW 9.3 km/h 9.3 km/h 69 % 0.0 mm 0.0 W/m2 CLR
07:43 13.9 °C 8.3 °C 1022.9 hPa SSW 5.6 km/h 5.6 km/h 69 % 0.0 mm 0.0 W/m2 CLR
07:48 13.9 °C 8.3 °C 1022.9 hPa SSW 1.9 km/h 1.9 km/h 69 % 0.0 mm 0.0 W/m2 OVC
07:53 13.9 °C 8.3 °C 1022.9 hPa Calm     69 % 0.0 mm 0.0 W/m2 OVC
07:58 13.9 °C 8.3 °C 1022.9 hPa Calm     69 % 0.0 mm 0.0 W/m2 OVC
08:03 13.9 °C 8.3 °C 1022.9 hPa South 5.6 km/h 5.6 km/h 69 % 0.0 mm 0.0 W/m2 OVC
08:08 13.3 °C 7.6 °C 1023.2 hPa SSW 3.7 km/h 3.7 km/h 68 % 0.0 mm 5.0 W/m2 OVC
08:13 13.3 °C 7.8 °C 1023.2 hPa Calm     69 % 0.0 mm 9.0 W/m2 BKN
08:18 13.3 °C 7.8 °C 1023.2 hPa SSW 6.4 km/h 6.4 km/h 69 % 0.0 mm 11.0 W/m2 BKN
08:23 13.3 °C 7.6 °C 1023.2 hPa SW 14.8 km/h 14.8 km/h 68 % 0.0 mm 14.0 W/m2 BKN
08:28 13.9 °C 7.8 °C 1023.2 hPa SW 18.5 km/h 18.5 km/h 67 % 0.0 mm 19.0 W/m2 BKN
08:33 13.9 °C 7.8 °C 1023.2 hPa SSW 13.0 km/h 13.0 km/h 67 % 0.0 mm 25.0 W/m2 BKN
08:38 15.0 °C 8.9 °C 1023.2 hPa SSW 11.1 km/h 11.1 km/h 67 % 0.0 mm 30.0 W/m2 BKN
08:43 15.6 °C 9.2 °C 1023.2 hPa SW 16.7 km/h 16.7 km/h 66 % 0.0 mm 33.0 W/m2 BKN
08:48 16.1 °C 9.8 °C 1023.2 hPa SSW 18.5 km/h 18.5 km/h 66 % 0.0 mm 39.0 W/m2 BKN
08:53 16.7 °C 10.3 °C 1023.6 hPa SSW 16.7 km/h 16.7 km/h 66 % 0.0 mm 47.0 W/m2 SCT
08:58 16.7 °C 10.3 °C 1023.6 hPa SSW 9.3 km/h 9.3 km/h 66 % 0.0 mm 53.0 W/m2 SCT
09:03 16.7 °C 10.3 °C 1023.6 hPa SSW 11.3 km/h 11.3 km/h 66 % 0.0 mm 60.0 W/m2 SCT
09:08 17.2 °C 10.8 °C 1023.6 hPa SW 16.7 km/h 16.7 km/h 66 % 0.0 mm 69.0 W/m2 SCT
09:13 17.2 °C 10.8 °C 1023.6 hPa West 20.9 km/h 20.9 km/h 66 % 0.0 mm 79.0 W/m2 FEW
09:18 17.2 °C 10.8 °C 1023.6 hPa SSW 25.9 km/h 25.9 km/h 66 % 0.0 mm 83.0 W/m2 FEW
09:23 17.2 °C 10.8 °C 1023.6 hPa South 20.9 km/h 20.9 km/h 66 % 0.0 mm 90.0 W/m2 FEW
09:28 17.2 °C 11.1 °C 1023.9 hPa SW 16.7 km/h 16.7 km/h 67 % 0.0 mm 95.0 W/m2 CLR
09:33 17.2 °C 10.8 °C 1023.9 hPa SSW 16.7 km/h 16.7 km/h 66 % 0.0 mm 107.0 W/m2 CLR
09:38 17.8 °C 11.3 °C 1023.9 hPa SW 13.0 km/h 13.0 km/h 66 % 0.0 mm 111.0 W/m2 CLR
09:43 17.8 °C 11.6 °C 1023.9 hPa SW 13.0 km/h 13.0 km/h 67 % 0.0 mm 114.0 W/m2 CLR
09:48 17.8 °C 11.6 °C 1023.9 hPa SSW 20.4 km/h 20.4 km/h 67 % 0.0 mm 123.0 W/m2 CLR
09:53 17.8 °C 11.6 °C 1023.9 hPa SSW 18.5 km/h 18.5 km/h 67 % 0.0 mm 137.0 W/m2 CLR
09:58 17.8 °C 11.6 °C 1023.9 hPa SW 18.5 km/h 18.5 km/h 67 % 0.0 mm 148.0 W/m2 CLR
10:03 17.8 °C 11.6 °C 1023.9 hPa SW 11.3 km/h 11.3 km/h 67 % 0.0 mm 155.0 W/m2 CLR
10:09 17.8 °C 11.6 °C 1024.3 hPa SSW 18.5 km/h 18.5 km/h 67 % 0.0 mm 162.0 W/m2 CLR
10:14 17.8 °C 11.6 °C 1023.9 hPa SSW 7.4 km/h 7.4 km/h 67 % 0.0 mm 167.0 W/m2 CLR
10:19 17.8 °C 11.6 °C 1023.9 hPa SW 18.5 km/h 18.5 km/h 67 % 0.0 mm 178.0 W/m2 CLR
10:24 18.3 °C 11.9 °C 1023.9 hPa SW 11.1 km/h 11.1 km/h 66 % 0.0 mm 185.0 W/m2 CLR
10:29 18.3 °C 11.6 °C 1023.9 hPa SSW 16.7 km/h 16.7 km/h 65 % 0.0 mm 190.0 W/m2 CLR
10:34 18.3 °C 11.4 °C 1023.9 hPa SW 24.1 km/h 24.1 km/h 64 % 0.0 mm 197.0 W/m2 CLR
10:39 18.3 °C 11.2 °C 1023.9 hPa SW 22.5 km/h 22.5 km/h 63 % 0.0 mm 214.0 W/m2 CLR
10:44 18.3 °C 10.7 °C 1023.9 hPa SW 24.1 km/h 24.1 km/h 61 % 0.0 mm 255.0 W/m2 CLR
10:49 18.9 °C 10.9 °C 1023.9 hPa SW 22.2 km/h 22.2 km/h 60 % 0.0 mm 297.0 W/m2 CLR
10:54 18.9 °C 10.7 °C 1023.9 hPa SSW 25.9 km/h 25.9 km/h 59 % 0.0 mm 308.0 W/m2 CLR
10:59 18.9 °C 10.4 °C 1023.9 hPa SW 24.1 km/h 24.1 km/h 58 % 0.0 mm 294.0 W/m2 CLR
11:04 19.4 °C 10.9 °C 1023.9 hPa SW 18.5 km/h 18.5 km/h 58 % 0.0 mm 322.0 W/m2 CLR
11:09 19.4 °C 10.2 °C 1023.9 hPa SW 29.6 km/h 29.6 km/h 55 % 0.0 mm 316.0 W/m2 CLR
11:14 19.4 °C 9.6 °C 1023.9 hPa WSW 29.0 km/h 29.0 km/h 53 % 0.0 mm 311.0 W/m2 CLR
11:19 19.4 °C 9.6 °C 1023.9 hPa SW 24.1 km/h 24.1 km/h 53 % 0.0 mm 320.0 W/m2 CLR
11:24 19.4 °C 9.3 °C 1023.9 hPa SW 24.1 km/h 24.1 km/h 52 % 0.0 mm 376.0 W/m2 CLR
11:29 20.0 °C 8.9 °C 1023.9 hPa WSW 27.8 km/h 27.8 km/h 49 % 0.0 mm 432.0 W/m2 CLR
11:34 20.0 °C 9.3 °C 1023.9 hPa SW 22.2 km/h 22.2 km/h 50 % 0.0 mm 418.0 W/m2 CLR
11:39 20.0 °C 9.3 °C 1023.9 hPa SW 33.3 km/h 33.3 km/h 50 % 0.0 mm 439.0 W/m2 CLR
11:44 20.6 °C 9.4 °C 1023.9 hPa SSW 24.1 km/h 24.1 km/h 49 % 0.0 mm 543.0 W/m2 CLR
11:49 20.6 °C 9.4 °C 1023.9 hPa SW 25.9 km/h 25.9 km/h 49 % 0.0 mm 462.0 W/m2 CLR
11:54 21.1 °C 9.3 °C 1023.9 hPa SW 22.2 km/h 22.2 km/h 47 % 0.0 mm 578.0 W/m2 CLR
11:59 21.1 °C 9.3 °C 1023.9 hPa SW 31.5 km/h 31.5 km/h 47 % 0.0 mm 408.0 W/m2 CLR
12:04 21.1 °C 9.3 °C 1023.9 hPa SW 13.0 km/h 13.0 km/h 47 % 0.0 mm 480.0 W/m2 CLR
12:09 21.1 °C 9.7 °C 1023.9 hPa SW 18.5 km/h 18.5 km/h 48 % 0.0 mm 510.0 W/m2 CLR
12:14 21.1 °C 9.3 °C 1023.9 hPa SW 31.5 km/h 31.5 km/h 47 % 0.0 mm 478.0 W/m2 CLR
12:19 21.1 °C 9.3 °C 1023.9 hPa WSW 29.6 km/h 29.6 km/h 47 % 0.0 mm 559.0 W/m2 CLR
12:24 21.1 °C 9.3 °C 1023.9 hPa SW 31.5 km/h 31.5 km/h 47 % 0.0 mm 464.0 W/m2 CLR
12:29 21.1 °C 9.7 °C 1023.9 hPa SSW 27.8 km/h 27.8 km/h 48 % 0.0 mm 415.0 W/m2 CLR
12:34 21.1 °C 9.7 °C 1024.3 hPa SSW 24.1 km/h 24.1 km/h 48 % 0.0 mm 410.0 W/m2 CLR
12:39 21.1 °C 9.7 °C 1024.3 hPa WSW 22.2 km/h 22.2 km/h 48 % 0.0 mm 684.0 W/m2 CLR
12:44 21.1 °C 10.0 °C 1024.3 hPa SW 31.5 km/h 31.5 km/h 49 % 0.0 mm 346.0 W/m2 CLR
12:49 21.1 °C 10.6 °C 1024.3 hPa WSW 31.5 km/h 31.5 km/h 51 % 0.0 mm 399.0 W/m2 CLR
12:50 21.1 °C 10.9 °C 1024.3 hPa West 31.5 km/h 31.5 km/h 52 % 0.0 mm 399.0 W/m2 CLR
12:55 21.1 °C 11.7 °C 1024.3 hPa WSW 31.5 km/h 31.5 km/h 55 % 0.0 mm 420.0 W/m2 CLR
13:00 21.1 °C 12.0 °C 1024.3 hPa West 31.5 km/h 31.5 km/h 56 % 0.0 mm 450.0 W/m2 CLR
13:05 21.1 °C 12.3 °C 1023.9 hPa WSW 38.9 km/h 38.9 km/h 57 % 0.0 mm 392.0 W/m2 CLR
13:10 21.1 °C 12.5 °C 1023.9 hPa WSW 20.4 km/h 20.4 km/h 58 % 0.0 mm 417.0 W/m2 CLR
13:15 21.1 °C 12.5 °C 1023.9 hPa WSW 18.5 km/h 18.5 km/h 58 % 0.0 mm 563.0 W/m2 CLR
13:20 21.7 °C 12.5 °C 1023.9 hPa SW 31.5 km/h 31.5 km/h 56 % 0.0 mm 788.0 W/m2 CLR
13:25 22.2 °C 13.0 °C 1023.9 hPa SW 24.1 km/h 24.1 km/h 56 % 0.0 mm 788.0 W/m2 CLR
13:30 22.8 °C 13.3 °C 1023.6 hPa SW 37.0 km/h 37.0 km/h 55 % 0.0 mm 1004.0 W/m2 CLR
13:35 22.2 °C 13.0 °C 1023.6 hPa WSW 35.4 km/h 35.4 km/h 56 % 0.0 mm 355.0 W/m2 CLR
13:40 22.2 °C 13.3 °C 1023.6 hPa SSW 22.2 km/h 22.2 km/h 57 % 0.0 mm 425.0 W/m2 CLR
13:45 22.2 °C 13.0 °C 1023.6 hPa SW 24.1 km/h 24.1 km/h 56 % 0.0 mm 381.0 W/m2 CLR
13:50 21.7 °C 12.5 °C 1023.6 hPa West 29.6 km/h 29.6 km/h 56 % 0.0 mm 401.0 W/m2 CLR
13:55 21.7 °C 12.5 °C 1023.6 hPa WSW 31.5 km/h 31.5 km/h 56 % 0.0 mm 392.0 W/m2 CLR
14:00 22.2 °C 13.0 °C 1023.2 hPa West 27.8 km/h 27.8 km/h 56 % 0.0 mm 364.0 W/m2 CLR
14:05 21.7 °C 12.5 °C 1023.2 hPa WSW 29.6 km/h 29.6 km/h 56 % 0.0 mm 399.0 W/m2 CLR
14:10 21.7 °C 12.5 °C 1023.2 hPa West 25.7 km/h 25.7 km/h 56 % 0.0 mm 515.0 W/m2 CLR
14:15 21.7 °C 12.5 °C 1023.6 hPa SW 24.1 km/h 24.1 km/h 56 % 0.0 mm 394.0 W/m2 CLR
14:20 21.7 °C 12.5 °C 1023.6 hPa West 31.5 km/h 31.5 km/h 56 % 0.0 mm 346.0 W/m2 CLR
14:25 21.7 °C 12.8 °C 1023.6 hPa West 30.6 km/h 30.6 km/h 57 % 0.0 mm 334.0 W/m2 CLR
14:30 21.7 °C 12.8 °C 1023.6 hPa SW 19.3 km/h 19.3 km/h 57 % 0.0 mm 339.0 W/m2 CLR
14:35 21.7 °C 12.8 °C 1023.6 hPa WSW 20.4 km/h 20.4 km/h 57 % 0.0 mm 325.0 W/m2 CLR
14:40 21.7 °C 13.1 °C 1023.6 hPa West 27.4 km/h 27.4 km/h 58 % 0.0 mm 345.0 W/m2 CLR
14:45 21.7 °C 13.1 °C 1023.6 hPa West 29.6 km/h 29.6 km/h 58 % 0.0 mm 329.0 W/m2 CLR
14:50 21.7 °C 13.3 °C 1023.6 hPa SW 31.5 km/h 31.5 km/h 59 % 0.0 mm 519.0 W/m2 CLR
14:55 22.2 °C 13.8 °C 1023.6 hPa SW 31.5 km/h 31.5 km/h 59 % 0.0 mm 605.0 W/m2 CLR
15:00 22.2 °C 13.8 °C 1023.6 hPa WSW 35.4 km/h 35.4 km/h 59 % 0.0 mm 642.0 W/m2 CLR
15:05 22.8 °C 14.3 °C 1023.6 hPa West 35.2 km/h 35.2 km/h 59 % 0.0 mm 543.0 W/m2 CLR
15:10 22.2 °C 13.8 °C 1023.6 hPa SW 31.5 km/h 31.5 km/h 59 % 0.0 mm 506.0 W/m2 CLR
15:15 22.2 °C 13.8 °C 1023.6 hPa WSW 27.8 km/h 27.8 km/h 59 % 0.0 mm 459.0 W/m2 CLR
15:20 22.2 °C 13.6 °C 1023.6 hPa West 30.6 km/h 30.6 km/h 58 % 0.0 mm 413.0 W/m2 CLR
15:25 21.7 °C 13.3 °C 1023.6 hPa WSW 24.1 km/h 24.1 km/h 59 % 0.0 mm 408.0 W/m2 CLR
15:30 21.7 °C 13.3 °C 1023.6 hPa SW 37.0 km/h 37.0 km/h 59 % 0.0 mm 455.0 W/m2 CLR
15:35 22.2 °C 13.8 °C 1023.6 hPa WSW 31.5 km/h 31.5 km/h 59 % 0.0 mm 383.0 W/m2 CLR
15:40 21.7 °C 13.3 °C 1023.6 hPa SW 33.3 km/h 33.3 km/h 59 % 0.0 mm 360.0 W/m2 CLR
15:45 21.7 °C 13.6 °C 1023.6 hPa WSW 24.1 km/h 24.1 km/h 60 % 0.0 mm 429.0 W/m2 CLR
15:50 21.7 °C 13.6 °C 1023.6 hPa SW 22.5 km/h 22.5 km/h 60 % 0.0 mm 339.0 W/m2 CLR
15:55 21.7 °C 13.3 °C 1023.6 hPa SW 29.6 km/h 29.6 km/h 59 % 0.0 mm 283.0 W/m2 CLR
16:00 21.1 °C 13.1 °C 1023.6 hPa SW 22.5 km/h 22.5 km/h 60 % 0.0 mm 285.0 W/m2 CLR
16:05 21.1 °C 13.1 °C 1023.6 hPa SW 31.5 km/h 31.5 km/h 60 % 0.0 mm 338.0 W/m2 CLR
16:10 21.7 °C 13.6 °C 1023.6 hPa West 31.5 km/h 31.5 km/h 60 % 0.0 mm 452.0 W/m2 CLR
16:15 21.7 °C 13.6 °C 1023.2 hPa West 24.1 km/h 24.1 km/h 60 % 0.0 mm 323.0 W/m2 CLR
16:20 21.7 °C 13.6 °C 1023.6 hPa SW 27.4 km/h 27.4 km/h 60 % 0.0 mm 309.0 W/m2 CLR
16:25 21.7 °C 13.8 °C 1023.6 hPa SSW 20.4 km/h 20.4 km/h 61 % 0.0 mm 299.0 W/m2 CLR
16:30 21.7 °C 13.6 °C 1023.6 hPa WNW 19.3 km/h 19.3 km/h 60 % 0.0 mm 323.0 W/m2 CLR
16:35 21.1 °C 12.8 °C 1023.6 hPa SW 18.5 km/h 18.5 km/h 59 % 0.0 mm 315.0 W/m2 CLR
16:40 21.1 °C 13.1 °C 1023.6 hPa WSW 18.5 km/h 18.5 km/h 60 % 0.0 mm 279.0 W/m2 CLR
16:45 21.1 °C 12.5 °C 1023.6 hPa SW 25.9 km/h 25.9 km/h 58 % 0.0 mm 243.0 W/m2 CLR
16:50 21.1 °C 12.8 °C 1023.6 hPa West 20.4 km/h 20.4 km/h 59 % 0.0 mm 221.0 W/m2 CLR
16:55 21.1 °C 12.8 °C 1023.6 hPa West 18.5 km/h 18.5 km/h 59 % 0.0 mm 216.0 W/m2 CLR
17:00 21.1 °C 13.1 °C 1023.6 hPa WSW 18.5 km/h 18.5 km/h 60 % 0.0 mm 211.0 W/m2 CLR
17:01 21.1 °C 13.1 °C 1023.6 hPa WSW 18.5 km/h 18.5 km/h 60 % 0.0 mm 211.0 W/m2 CLR
17:06 21.1 °C 13.1 °C 1023.6 hPa SW 16.7 km/h 16.7 km/h 60 % 0.0 mm 200.0 W/m2 CLR
17:11 21.1 °C 13.1 °C 1023.6 hPa SW 18.5 km/h 18.5 km/h 60 % 0.0 mm 186.0 W/m2 CLR
17:16 21.1 °C 13.3 °C 1023.6 hPa WSW 18.5 km/h 18.5 km/h 61 % 0.0 mm 160.0 W/m2 CLR
17:21 21.1 °C 13.1 °C 1023.6 hPa West 22.2 km/h 22.2 km/h 60 % 0.0 mm 135.0 W/m2 CLR
17:26 20.6 °C 12.5 °C 1023.2 hPa SW 16.7 km/h 16.7 km/h 60 % 0.0 mm 120.0 W/m2 CLR
17:31 20.6 °C 12.5 °C 1023.6 hPa West 18.5 km/h 18.5 km/h 60 % 0.0 mm 118.0 W/m2 CLR
17:36 20.6 °C 12.8 °C 1023.6 hPa West 5.6 km/h 5.6 km/h 61 % 0.0 mm 121.0 W/m2 CLR
17:41 20.6 °C 12.8 °C 1023.6 hPa WSW 5.6 km/h 5.6 km/h 61 % 0.0 mm 118.0 W/m2 CLR
17:46 21.1 °C 13.3 °C 1023.6 hPa WSW 20.4 km/h 20.4 km/h 61 % 0.0 mm 104.0 W/m2 CLR
17:51 21.1 °C 13.6 °C 1023.6 hPa WSW 24.1 km/h 24.1 km/h 62 % 0.0 mm 90.0 W/m2 CLR
17:56 21.1 °C 14.1 °C 1023.6 hPa WSW 18.5 km/h 18.5 km/h 64 % 0.0 mm 76.0 W/m2 CLR
18:01 21.1 °C 14.1 °C 1023.6 hPa WSW 18.5 km/h 18.5 km/h 64 % 0.0 mm 74.0 W/m2 FEW
18:06 21.1 °C 14.1 °C 1023.6 hPa SW 11.1 km/h 11.1 km/h 64 % 0.0 mm 79.0 W/m2 FEW
18:11 21.1 °C 14.1 °C 1023.6 hPa SW 20.4 km/h 20.4 km/h 64 % 0.0 mm 86.0 W/m2 FEW
18:16 21.1 °C 14.3 °C 1023.6 hPa SW 18.5 km/h 18.5 km/h 65 % 0.0 mm 90.0 W/m2 CLR
18:21 21.1 °C 14.3 °C 1023.6 hPa SW 9.3 km/h 9.3 km/h 65 % 0.0 mm 88.0 W/m2 CLR
18:26 21.1 °C 14.3 °C 1023.6 hPa WSW 18.5 km/h 18.5 km/h 65 % 0.0 mm 74.0 W/m2 CLR
18:31 21.1 °C 14.3 °C 1023.6 hPa SW 14.8 km/h 14.8 km/h 65 % 0.0 mm 56.0 W/m2 FEW
18:36 21.1 °C 14.3 °C 1023.6 hPa SW 20.9 km/h 20.9 km/h 65 % 0.0 mm 56.0 W/m2 SCT
18:41 21.1 °C 14.3 °C 1023.6 hPa West 7.4 km/h 7.4 km/h 65 % 0.0 mm 54.0 W/m2 SCT
18:46 21.1 °C 14.3 °C 1023.6 hPa WSW 18.5 km/h 18.5 km/h 65 % 0.0 mm 40.0 W/m2 BKN
18:51 21.1 °C 14.3 °C 1023.6 hPa WSW 17.7 km/h 17.7 km/h 65 % 0.0 mm 39.0 W/m2 BKN
18:56 21.1 °C 14.3 °C 1023.6 hPa SW 25.9 km/h 25.9 km/h 65 % 0.0 mm 30.0 W/m2 BKN
19:01 21.1 °C 14.3 °C 1023.6 hPa WSW 25.9 km/h 25.9 km/h 65 % 0.0 mm 26.0 W/m2 BKN
19:06 21.1 °C 14.3 °C 1023.6 hPa SW 18.5 km/h 18.5 km/h 65 % 0.0 mm 23.0 W/m2 BKN
19:11 21.1 °C 14.5 °C 1023.6 hPa SW 9.3 km/h   66 % 0.0 mm 21.0 W/m2 BKN
19:21 21.1 °C 14.5 °C 1023.6 hPa SW 22.2 km/h 22.2 km/h 66 % 0.0 mm 18.0 W/m2 BKN
19:26 21.1 °C 14.5 °C 1023.6 hPa WSW 24.1 km/h 24.1 km/h 66 % 0.0 mm 14.0 W/m2 BKN
19:31 21.1 °C 14.5 °C 1023.6 hPa SW 17.7 km/h 17.7 km/h 66 % 0.0 mm 9.0 W/m2 BKN
19:36 21.1 °C 14.5 °C 1023.6 hPa SSW 16.7 km/h 16.7 km/h 66 % 0.0 mm 5.0 W/m2 OVC
19:41 20.6 °C 14.2 °C 1023.6 hPa SW 5.6 km/h 5.6 km/h 67 % 0.0 mm 0.0 W/m2 OVC
19:46 20.6 °C 14.2 °C 1023.6 hPa SW 8.0 km/h 8.0 km/h 67 % 0.0 mm 0.0 W/m2 OVC
19:52 20.6 °C 14.2 °C 1023.6 hPa SW 5.6 km/h 5.6 km/h 67 % 0.0 mm 0.0 W/m2 OVC
19:57 20.6 °C 14.2 °C 1023.6 hPa SW 6.4 km/h 6.4 km/h 67 % 0.0 mm 0.0 W/m2 CLR
20:02 20.6 °C 14.4 °C 1023.6 hPa SW 5.6 km/h 5.6 km/h 68 % 0.0 mm 0.0 W/m2 CLR
20:07 20.0 °C 13.7 °C 1023.6 hPa SW 9.3 km/h 9.3 km/h 67 % 0.0 mm 0.0 W/m2 CLR
20:12 20.6 °C 14.4 °C 1023.6 hPa Calm     68 % 0.0 mm 0.0 W/m2 CLR
20:17 20.0 °C 13.9 °C 1023.6 hPa Calm     68 % 0.0 mm 0.0 W/m2 CLR
20:22 20.6 °C 14.4 °C 1023.6 hPa SW 9.3 km/h 9.3 km/h 68 % 0.0 mm 0.0 W/m2 CLR
20:27 20.6 °C 14.4 °C 1023.9 hPa Calm     68 % 0.0 mm 0.0 W/m2 CLR
20:32 20.6 °C 14.4 °C 1023.9 hPa Calm     68 % 0.0 mm 0.0 W/m2 CLR
20:37 20.6 °C 14.4 °C 1023.9 hPa SW 11.1 km/h 11.1 km/h 68 % 0.0 mm 0.0 W/m2 CLR
20:42 20.6 °C 14.4 °C 1023.9 hPa SW 7.4 km/h   68 % 0.0 mm 0.0 W/m2 CLR
20:47 20.6 °C 14.4 °C 1023.9 hPa SW 5.6 km/h 5.6 km/h 68 % 0.0 mm 0.0 W/m2 CLR
20:52 20.6 °C 14.4 °C 1023.9 hPa SW 5.6 km/h 5.6 km/h 68 % 0.0 mm 0.0 W/m2 CLR
20:57 20.6 °C 14.4 °C 1023.9 hPa Calm     68 % 0.0 mm 0.0 W/m2 CLR
21:02 20.6 °C 14.4 °C 1023.9 hPa SSW 14.5 km/h 14.5 km/h 68 % 0.0 mm 0.0 W/m2 CLR
21:07 20.6 °C 14.4 °C 1023.9 hPa WSW 5.6 km/h 5.6 km/h 68 % 0.0 mm 0.0 W/m2 CLR
21:12 20.6 °C 14.4 °C 1024.3 hPa Calm     68 % 0.0 mm 0.0 W/m2 CLR
21:17 20.6 °C 14.4 °C 1024.3 hPa West 16.7 km/h 16.7 km/h 68 % 0.0 mm 0.0 W/m2 CLR
21:22 20.6 °C 14.4 °C 1024.3 hPa SW 5.6 km/h 5.6 km/h 68 % 0.0 mm 0.0 W/m2 CLR
21:27 20.6 °C 14.4 °C 1024.3 hPa SSW 5.6 km/h 5.6 km/h 68 % 0.0 mm 0.0 W/m2 CLR
21:32 20.6 °C 14.4 °C 1024.3 hPa SW 11.3 km/h 11.3 km/h 68 % 0.0 mm 0.0 W/m2 CLR
21:37 20.6 °C 14.4 °C 1024.3 hPa Calm     68 % 0.0 mm 0.0 W/m2 CLR
21:42 20.6 °C 14.4 °C 1024.3 hPa WSW 9.3 km/h 9.3 km/h 68 % 0.0 mm 0.0 W/m2 CLR
21:47 20.6 °C 14.4 °C 1024.3 hPa SSW 14.8 km/h 14.8 km/h 68 % 0.0 mm 0.0 W/m2 CLR
21:52 20.6 °C 14.4 °C 1024.3 hPa WSW 13.0 km/h 13.0 km/h 68 % 0.0 mm 0.0 W/m2 CLR
21:57 20.6 °C 14.4 °C 1024.3 hPa SW 22.2 km/h 22.2 km/h 68 % 0.0 mm 0.0 W/m2 CLR
22:02 20.6 °C 14.4 °C 1024.3 hPa SW 16.7 km/h 16.7 km/h 68 % 0.0 mm 0.0 W/m2 CLR
22:07 20.6 °C 14.4 °C 1024.3 hPa SW 25.9 km/h 25.9 km/h 68 % 0.0 mm 0.0 W/m2 CLR
22:12 20.6 °C 14.4 °C 1024.6 hPa WSW 22.2 km/h 22.2 km/h 68 % 0.0 mm 0.0 W/m2 CLR
22:17 20.6 °C 14.4 °C 1024.6 hPa SW 20.4 km/h 20.4 km/h 68 % 0.0 mm 0.0 W/m2 CLR
22:22 20.6 °C 14.7 °C 1024.6 hPa SW 14.8 km/h 14.8 km/h 69 % 0.0 mm 0.0 W/m2 CLR
22:27 20.6 °C 14.7 °C 1024.3 hPa WSW 14.8 km/h 14.8 km/h 69 % 0.0 mm 0.0 W/m2 CLR
22:32 20.6 °C 14.7 °C 1024.3 hPa SSW 22.2 km/h 22.2 km/h 69 % 0.0 mm 0.0 W/m2 CLR
22:37 20.0 °C 14.1 °C 1024.6 hPa WSW 18.5 km/h 18.5 km/h 69 % 0.0 mm 0.0 W/m2 CLR
22:42 20.0 °C 14.3 °C 1024.6 hPa SW 18.5 km/h 18.5 km/h 70 % 0.0 mm 0.0 W/m2 CLR
22:47 20.0 °C 14.3 °C 1024.6 hPa SW 24.1 km/h 24.1 km/h 70 % 0.0 mm 0.0 W/m2 CLR
22:52 20.0 °C 14.3 °C 1024.6 hPa SW 14.8 km/h 14.8 km/h 70 % 0.0 mm 0.0 W/m2 CLR
22:57 20.0 °C 14.3 °C 1024.6 hPa SSW 22.5 km/h 22.5 km/h 70 % 0.0 mm 0.0 W/m2 CLR
23:02 20.0 °C 14.3 °C 1024.6 hPa SSW 18.5 km/h 18.5 km/h 70 % 0.0 mm 0.0 W/m2 CLR
23:07 20.0 °C 14.6 °C 1024.6 hPa SSW 24.1 km/h 24.1 km/h 71 % 0.0 mm 0.0 W/m2 CLR
23:12 20.0 °C 14.3 °C 1024.6 hPa SSW 5.6 km/h 5.6 km/h 70 % 0.0 mm 0.0 W/m2 CLR
23:17 20.0 °C 14.6 °C 1024.6 hPa SW 25.9 km/h 25.9 km/h 71 % 0.0 mm 0.0 W/m2 CLR
23:22 20.0 °C 14.6 °C 1024.6 hPa SW 5.6 km/h 5.6 km/h 71 % 0.0 mm 0.0 W/m2 CLR
23:27 20.0 °C 14.6 °C 1024.9 hPa SSW 13.0 km/h 13.0 km/h 71 % 0.0 mm 0.0 W/m2 CLR
23:32 19.4 °C 14.1 °C 1024.9 hPa SW 16.7 km/h 16.7 km/h 71 % 0.0 mm 0.0 W/m2 CLR
23:37 19.4 °C 14.3 °C 1024.9 hPa Calm     72 % 0.0 mm 0.0 W/m2 CLR
23:42 19.4 °C 14.3 °C 1024.6 hPa SSW 4.8 km/h 4.8 km/h 72 % 0.0 mm 0.0 W/m2 CLR
23:47 19.4 °C 14.3 °C 1024.6 hPa SW 7.4 km/h 7.4 km/h 72 % 0.0 mm 0.0 W/m2 CLR
23:52 18.9 °C 13.7 °C 1024.9 hPa Calm     72 % 0.0 mm 0.0 W/m2 CLR
23:53 18.9 °C 13.7 °C 1024.9 hPa SSW 11.3 km/h 11.3 km/h 72 % 0.0 mm 0.0 W/m2 CLR
23:58 19.4 °C 14.5 °C 1024.9 hPa SW 18.5 km/h 18.5 km/h 73 % 0.0 mm 0.0 W/m2 CLR
Lo Temps de Massalio
Compliments of Weather Underground - 1.25 mb